createdAt,value
2019-05-07T00:01:09.026Z,8
2019-05-07T00:11:14.434Z,7
2019-05-07T00:18:18.983Z,7
2019-05-07T00:28:23.788Z,8
2019-05-07T00:38:28.145Z,6
2019-05-07T00:48:33.870Z,6
2019-05-07T00:58:39.612Z,6
2019-05-07T01:08:44.197Z,8
2019-05-07T01:18:49.571Z,8
2019-05-07T01:28:54.797Z,6
2019-05-07T01:38:59.090Z,9
2019-05-07T01:49:04.227Z,6
2019-05-07T01:59:09.113Z,8
2019-05-07T02:09:13.773Z,6
2019-05-07T02:19:19.309Z,9
2019-05-07T02:29:23.867Z,7
2019-05-07T02:39:34.896Z,6
2019-05-07T02:49:39.123Z,7
2019-05-07T02:59:45.489Z,7
2019-05-07T03:09:54.561Z,9
2019-05-07T03:19:55.646Z,9
2019-05-07T03:30:04.817Z,7
2019-05-07T03:40:06.447Z,8
2019-05-07T03:50:15.188Z,10
2019-05-07T04:00:19.725Z,10
2019-05-07T04:10:25.968Z,7
2019-05-07T04:20:34.015Z,8
2019-05-07T04:30:39.549Z,9
2019-05-07T04:40:45.367Z,7
2019-05-07T04:51:17.757Z,9
2019-05-07T05:01:14.559Z,8
2019-05-07T05:11:22.983Z,6
2019-05-07T05:21:23.623Z,7
2019-05-07T05:31:28.879Z,7
2019-05-07T05:41:37.789Z,8
2019-05-07T05:51:39.049Z,7
2019-05-07T06:01:45.223Z,8
2019-05-07T06:11:49.212Z,7
2019-05-07T06:21:54.862Z,7
2019-05-07T06:31:59.375Z,7
2019-05-07T06:42:04.041Z,29
2019-05-07T06:52:12.014Z,27
2019-05-07T07:02:14.949Z,7
2019-05-07T07:12:26.053Z,8
2019-05-07T07:22:29.033Z,6
2019-05-07T07:32:35.185Z,8
2019-05-07T07:42:39.674Z,8
2019-05-07T07:52:45.437Z,8
2019-05-07T08:02:52.726Z,8
2019-05-07T08:12:58.295Z,8
2019-05-07T08:23:05.795Z,10
2019-05-07T08:33:15.913Z,10
2019-05-07T08:43:13.872Z,8
2019-05-07T08:53:18.097Z,9
2019-05-07T09:03:25.267Z,8
2019-05-07T09:13:29.642Z,8
2019-05-07T09:23:35.336Z,6
2019-05-07T09:33:42.755Z,14
2019-05-07T09:43:51.729Z,9
2019-05-07T09:53:54.656Z,7
2019-05-07T10:04:02.386Z,6
2019-05-07T10:14:04.088Z,6
2019-05-07T10:24:13.602Z,6
2019-05-07T10:34:14.138Z,7
2019-05-07T10:44:19.906Z,7
2019-05-07T10:54:24.167Z,7
2019-05-07T11:04:45.818Z,6
2019-05-07T11:14:44.017Z,6
2019-05-07T11:24:45.123Z,5
2019-05-07T11:34:56.033Z,5
2019-05-07T11:44:55.665Z,6
2019-05-07T11:55:03.452Z,5
2019-05-07T12:05:09.786Z,5
2019-05-07T12:15:18.106Z,5
2019-05-07T12:25:24.151Z,7
2019-05-07T12:35:29.616Z,8
2019-05-07T12:45:35.937Z,5
2019-05-07T12:55:37.070Z,7
2019-05-07T13:05:48.587Z,7
2019-05-07T13:16:10.063Z,6
2019-05-07T13:26:04.899Z,7
2019-05-07T13:36:05.739Z,6
2019-05-07T13:46:12.544Z,6
2019-05-07T13:56:14.856Z,6
2019-05-07T14:06:22.225Z,10
2019-05-07T14:16:27.928Z,5
2019-05-07T14:26:33.127Z,6
2019-05-07T14:36:43.284Z,7
2019-05-07T14:46:54.373Z,6
2019-05-07T14:56:52.070Z,6
2019-05-07T15:07:03.922Z,7
2019-05-07T15:17:05.784Z,7
2019-05-07T15:27:09.047Z,18
2019-05-07T15:37:15.227Z,5
2019-05-07T15:47:23.079Z,5
2019-05-07T15:57:23.835Z,5
2019-05-07T16:07:36.194Z,5
2019-05-07T16:17:34.410Z,6
2019-05-07T16:27:42.791Z,5
2019-05-07T16:37:49.160Z,7
2019-05-07T16:47:54.139Z,5
2019-05-07T16:57:58.843Z,4
2019-05-07T17:08:08.535Z,5
2019-05-07T17:18:08.237Z,6
2019-05-07T17:28:13.467Z,8
2019-05-07T17:38:23.467Z,5
2019-05-07T17:48:24.712Z,7
2019-05-07T17:58:32.937Z,12
2019-05-07T18:08:34.240Z,8
2019-05-07T18:18:44.155Z,6
2019-05-07T18:28:46.974Z,5
2019-05-07T18:38:49.008Z,8
2019-05-07T18:48:54.430Z,11
2019-05-07T18:59:03.141Z,12
2019-05-07T19:09:06.518Z,7
2019-05-07T19:19:12.701Z,5
2019-05-07T19:29:14.675Z,6
2019-05-07T19:39:20.140Z,7
2019-05-07T19:49:25.300Z,6
2019-05-07T19:59:32.366Z,6
2019-05-07T20:09:53.932Z,10
2019-05-07T20:19:45.151Z,8
2019-05-07T20:29:53.883Z,6
2019-05-07T20:39:59.464Z,5
2019-05-07T20:50:05.192Z,6
2019-05-07T21:00:09.648Z,7
2019-05-07T21:10:15.150Z,6
2019-05-07T21:20:24.002Z,7
2019-05-07T21:30:29.289Z,7
2019-05-07T21:40:34.245Z,8
2019-05-07T21:50:44.624Z,6
2019-05-07T22:00:43.976Z,10
2019-05-07T22:10:49.482Z,22
2019-05-07T22:20:53.906Z,32
2019-05-07T22:30:59.069Z,19
2019-05-07T22:41:03.760Z,21
2019-05-07T22:51:09.527Z,38
2019-05-07T23:01:13.956Z,39
2019-05-07T23:11:23.330Z,12
2019-05-07T23:21:24.976Z,6
2019-05-07T23:31:33.188Z,7
2019-05-07T23:41:34.913Z,6
2019-05-07T23:51:38.948Z,6
